Time;durP1;ratioP1;P1;durP2;ratioP2;P2;SDS_P1;SDS_P2;PMS_P1;PMS_P2;Temp;Humidity;BMP_temperature;BMP_pressure;BME280_temperature;BME280_humidity;BME280_pressure;Samples;Min_cycle;Max_cycle;Signal;HPM_P1;HPM_P2
2023/09/03 00:04:23;;;;;;;22.75;18.77;;;;;;;14.60;79.77;101337.41;10274665;28;20450;-76
2023/09/03 00:09:26;;;;;;;24.30;17.73;;;;;;;14.69;79.48;101325.81;10278269;28;20053;-76
2023/09/03 00:14:29;;;;;;;24.23;19.65;;;;;;;14.69;79.41;101330.38;10258875;28;20050;-76
2023/09/03 00:19:33;;;;;;;26.13;19.58;;;;;;;14.17;82.24;101340.88;10273797;28;20407;-76
2023/09/03 00:24:36;;;;;;;27.42;20.55;;;;;;;14.20;82.48;101334.38;10272782;28;20043;-76
2023/09/03 00:29:40;;;;;;;22.83;18.95;;;;;;;14.37;81.34;101341.97;10275403;28;20050;-76
2023/09/03 00:34:45;;;;;;;24.77;21.05;;;;;;;14.34;81.40;101355.72;10270415;28;20536;-76
2023/09/03 00:39:48;;;;;;;30.00;21.90;;;;;;;14.50;80.87;101358.06;10255665;28;20050;-75
2023/09/03 00:44:51;;;;;;;25.40;20.17;;;;;;;14.53;80.72;101357.81;10254359;28;20059;-76
2023/09/03 00:49:56;;;;;;;23.95;19.50;;;;;;;14.53;79.96;101355.97;10254143;28;20046;-75
2023/09/03 00:54:59;;;;;;;27.70;20.63;;;;;;;14.44;79.58;101364.00;10261077;28;20062;-75
2023/09/03 01:00:02;;;;;;;24.33;19.63;;;;;;;14.46;79.72;101370.13;10268393;28;20058;-75
2023/09/03 01:05:07;;;;;;;29.45;20.65;;;;;;;14.52;79.24;101384.00;10253552;28;20520;-75
2023/09/03 01:10:10;;;;;;;26.80;21.55;;;;;;;14.41;78.70;101392.13;10267590;28;20035;-75
2023/09/03 01:15:18;;;;;;;28.17;21.30;;;;;;;14.28;79.65;101392.22;10271451;28;20098;-75
2023/09/03 01:20:27;;;;;;;29.38;21.42;;;;;;;14.25;79.67;101387.06;10269695;28;20077;-76
2023/09/03 01:26:15;;;;;;;33.50;23.40;;;;;;;14.17;80.01;101373.31;10270536;28;20034;-76
2023/09/03 01:31:20;;;;;;;29.52;22.45;;;;;;;14.10;80.15;101372.97;10175087;28;20061;-75
2023/09/03 01:36:23;;;;;;;29.05;22.85;;;;;;;14.00;80.78;101382.78;10264910;28;20050;-75
2023/09/03 01:41:26;;;;;;;29.20;22.25;;;;;;;13.95;80.70;101387.69;10250582;28;20051;-75
2023/09/03 01:46:41;;;;;;;30.75;22.63;;;;;;;13.67;81.65;101391.72;10271290;28;20057;-75
2023/09/03 01:51:52;;;;;;;28.80;22.50;;;;;;;13.28;83.29;101396.50;10266701;28;20502;-74
2023/09/03 01:57:00;;;;;;;30.05;23.40;;;;;;;13.27;83.39;101392.94;10250346;28;20039;-76
2023/09/03 02:02:05;;;;;;;32.65;23.55;;;;;;;13.45;82.59;101385.28;10255788;28;20138;-76
2023/09/03 02:07:09;;;;;;;34.28;23.38;;;;;;;13.36;83.15;101387.81;10260811;28;20051;-75
2023/09/03 02:12:12;;;;;;;39.53;27.52;;;;;;;13.10;84.05;101379.00;10265892;28;20110;-75
2023/09/03 02:17:19;;;;;;;31.08;23.77;;;;;;;12.56;86.26;101391.09;10260897;28;20118;-75
2023/09/03 02:22:22;;;;;;;34.63;24.25;;;;;;;12.78;85.89;101396.66;10263063;28;20039;-74
2023/09/03 02:27:25;;;;;;;34.70;26.60;;;;;;;13.14;84.70;101383.19;10244413;28;20130;-76
2023/09/03 02:32:30;;;;;;;33.88;24.70;;;;;;;13.13;84.44;101376.91;10260186;28;20123;-76
2023/09/03 02:37:33;;;;;;;36.90;24.98;;;;;;;13.18;83.63;101368.50;10249757;28;20039;-74
2023/09/03 02:42:36;;;;;;;37.30;25.63;;;;;;;13.32;83.31;101354.78;10266129;28;20094;-76
2023/09/03 02:47:40;;;;;;;31.25;22.80;;;;;;;13.30;82.77;101359.44;10260706;28;20043;-76
2023/09/03 02:52:43;;;;;;;34.33;23.80;;;;;;;13.08;83.03;101349.44;10247571;28;20147;-76
2023/09/03 02:57:46;;;;;;;35.13;23.80;;;;;;;12.93;83.57;101347.94;10261198;28;20198;-76
2023/09/03 03:02:51;;;;;;;35.80;24.27;;;;;;;12.99;83.44;101347.44;10260623;28;20054;-76
2023/09/03 03:07:55;;;;;;;36.10;24.38;;;;;;;13.02;83.36;101344.50;10260014;28;20109;-76
2023/09/03 03:12:58;;;;;;;35.17;24.50;;;;;;;13.12;83.31;101336.59;10253868;28;20150;-76
2023/09/03 03:18:03;;;;;;;33.30;23.45;;;;;;;13.24;83.29;101336.50;10260912;28;20043;-76
2023/09/03 03:23:06;;;;;;;29.63;22.00;;;;;;;13.40;82.23;101352.38;10266379;28;20637;-76
2023/09/03 03:28:09;;;;;;;24.77;18.45;;;;;;;13.45;81.23;101368.22;10262570;28;20051;-76
2023/09/03 03:33:13;;;;;;;23.02;18.27;;;;;;;13.39;79.90;101393.00;10259465;28;20075;-77
2023/09/03 03:38:17;;;;;;;24.30;18.67;;;;;;;13.30;79.14;101399.91;10265145;28;20063;-76
2023/09/03 03:43:20;;;;;;;27.27;19.10;;;;;;;13.18;78.50;101404.41;10265633;28;20118;-75
2023/09/03 03:48:24;;;;;;;28.23;19.90;;;;;;;12.83;79.05;101412.47;10242686;28;20043;-76
2023/09/03 03:53:28;;;;;;;27.67;19.02;;;;;;;12.90;79.71;101410.19;10261831;28;20054;-76
2023/09/03 03:58:32;;;;;;;26.70;18.90;;;;;;;12.94;79.45;101414.34;10266726;28;20535;-76
2023/09/03 04:03:37;;;;;;;28.00;21.83;;;;;;;12.90;79.96;101415.56;10256523;28;20047;-76
2023/09/03 04:08:43;;;;;;;31.65;22.58;;;;;;;12.85;80.48;101415.06;10260897;28;20050;-76
2023/09/03 04:13:46;;;;;;;29.15;21.88;;;;;;;12.88;80.56;101417.53;10263699;28;20062;-76
2023/09/03 04:18:51;;;;;;;30.42;22.33;;;;;;;12.93;80.42;101418.91;10250484;28;20105;-74
2023/09/03 04:23:54;;;;;;;30.30;22.90;;;;;;;13.05;80.53;101425.19;10243810;28;20109;-76
2023/09/03 04:28:57;;;;;;;30.85;23.15;;;;;;;12.97;79.73;101439.28;10242883;28;20043;-75
2023/09/03 04:34:02;;;;;;;31.10;22.13;;;;;;;12.50;80.94;101451.69;10262667;28;20083;-76
2023/09/03 04:39:05;;;;;;;39.55;26.05;;;;;;;12.48;81.47;101456.38;10265590;28;20043;-75
2023/09/03 04:44:10;;;;;;;37.42;24.98;;;;;;;12.38;82.20;101466.94;10259044;28;20118;-76
2023/09/03 04:49:18;;;;;;;35.45;24.75;;;;;;;12.20;83.57;101480.81;10249246;28;20043;-76
2023/09/03 04:54:20;;;;;;;32.00;23.35;;;;;;;12.48;83.12;101480.63;10240350;28;20043;-76
2023/09/03 04:59:24;;;;;;;31.73;24.02;;;;;;;12.76;82.55;101473.22;10242779;28;20130;-75
2023/09/03 05:04:28;;;;;;;32.83;23.05;;;;;;;12.89;81.66;101471.34;10243273;28;20871;-75
2023/09/03 05:09:31;;;;;;;34.83;23.38;;;;;;;12.98;81.73;101486.84;10259517;28;20193;-75
2023/09/03 05:14:35;;;;;;;31.63;23.38;;;;;;;12.87;80.35;101476.00;10244307;28;20501;-75
2023/09/03 05:19:39;;;;;;;32.17;22.30;;;;;;;12.47;81.21;101481.56;10257556;28;20448;-75
2023/09/03 05:24:43;;;;;;;30.65;22.35;;;;;;;12.59;81.68;101502.25;10259542;28;20045;-76
2023/09/03 05:29:46;;;;;;;32.85;22.27;;;;;;;12.74;81.34;101513.75;10259181;28;20515;-76
2023/09/03 05:34:50;;;;;;;34.25;24.13;;;;;;;12.80;80.50;101528.63;10264017;28;20050;-76
2023/09/03 05:39:53;;;;;;;30.90;22.08;;;;;;;12.94;80.48;101538.41;10260285;28;20088;-76
2023/09/03 05:44:59;;;;;;;28.35;20.90;;;;;;;13.16;80.06;101537.69;10239146;28;20055;-76
2023/09/03 05:50:05;;;;;;;31.00;21.55;;;;;;;13.26;79.36;101549.53;10261133;28;20039;-76
2023/09/03 05:55:08;;;;;;;26.58;20.13;;;;;;;13.31;78.68;101563.56;10264465;28;20553;-76
2023/09/03 06:00:12;;;;;;;32.00;20.67;;;;;;;13.21;78.97;101571.47;10243899;28;20043;-76
2023/09/03 06:05:28;;;;;;;26.97;20.93;;;;;;;13.36;78.51;101574.03;10259746;28;20058;-76
2023/09/03 06:10:31;;;;;;;25.60;18.05;;;;;;;13.34;78.16;101576.81;10256966;28;20071;-76
2023/09/03 06:15:34;;;;;;;26.08;19.38;;;;;;;13.35;77.96;101586.63;10267040;28;20054;-76
2023/09/03 06:20:38;;;;;;;25.80;19.27;;;;;;;13.47;77.97;101595.72;10265720;28;20047;-76
2023/09/03 06:25:41;;;;;;;26.90;18.50;;;;;;;13.55;77.25;101612.22;10268707;28;20114;-76
2023/09/03 06:30:44;;;;;;;19.13;12.98;;;;;;;14.00;77.76;101622.34;10272595;28;20470;-76
2023/09/03 06:35:49;;;;;;;22.35;15.00;;;;;;;14.57;75.96;101605.34;10265288;28;20089;-76
2023/09/03 06:40:52;;;;;;;17.35;14.25;;;;;;;14.89;74.48;101608.22;10269157;28;20046;-76
2023/09/03 06:45:55;;;;;;;16.73;14.00;;;;;;;15.06;73.41;101612.25;10269809;28;20152;-76
2023/09/03 06:50:59;;;;;;;15.73;13.75;;;;;;;15.15;73.47;101606.09;10269119;28;20055;-76
2023/09/03 06:56:02;;;;;;;20.27;14.57;;;;;;;15.40;73.29;101609.53;10266915;28;20097;-75
2023/09/03 07:01:07;;;;;;;17.88;13.90;;;;;;;15.56;72.73;101622.66;10266348;28;20046;-75
2023/09/03 07:06:11;;;;;;;25.05;18.42;;;;;;;15.63;72.04;101629.28;10268179;28;20046;-76
2023/09/03 07:11:14;;;;;;;17.55;14.15;;;;;;;16.27;70.80;101634.75;10270546;28;20497;-76
2023/09/03 07:16:17;;;;;;;16.33;14.13;;;;;;;16.59;70.54;101629.25;10273617;28;20047;-76
2023/09/03 07:21:21;;;;;;;24.55;17.92;;;;;;;16.56;70.05;101615.06;10263890;28;20453;-76
2023/09/03 07:26:24;;;;;;;25.58;18.00;;;;;;;16.77;70.30;101609.63;10263181;28;20067;-76
2023/09/03 07:31:27;;;;;;;26.83;19.77;;;;;;;16.72;70.04;101620.03;10269675;28;20037;-75
2023/09/03 07:36:31;;;;;;;19.60;13.82;;;;;;;16.90;69.25;101612.97;10270134;28;20043;-76
2023/09/03 07:41:34;;;;;;;23.33;17.10;;;;;;;17.00;69.08;101621.16;10267185;28;20151;-76
2023/09/03 07:46:37;;;;;;;27.98;20.92;;;;;;;16.94;69.49;101621.72;10266419;28;20138;-77
2023/09/03 07:51:42;;;;;;;25.77;20.20;;;;;;;17.34;68.98;101645.34;10266025;28;20058;-76
2023/09/03 07:56:44;;;;;;;27.98;20.02;;;;;;;17.75;67.51;101643.44;10265855;28;20479;-75
2023/09/03 08:01:47;;;;;;;27.98;17.63;;;;;;;18.14;67.61;101649.78;10275511;28;20042;-75
2023/09/03 08:06:51;;;;;;;21.75;16.48;;;;;;;18.38;65.15;101649.34;10267809;28;20050;-75
2023/09/03 08:11:55;;;;;;;19.50;15.10;;;;;;;18.32;65.71;101647.16;10267424;28;20180;-75
2023/09/03 08:16:58;;;;;;;17.92;14.10;;;;;;;18.54;66.03;101646.88;10266279;28;20067;-75
2023/09/03 08:22:03;;;;;;;18.80;16.05;;;;;;;18.80;65.15;101643.53;10272283;28;20494;-75
2023/09/03 08:27:06;;;;;;;15.80;11.63;;;;;;;19.61;62.16;101641.03;10271352;28;20043;-75
2023/09/03 08:32:08;;;;;;;15.02;11.45;;;;;;;20.81;58.23;101644.31;10266802;28;20117;-75
2023/09/03 08:37:12;;;;;;;14.18;11.13;;;;;;;21.67;55.50;101649.69;10268047;28;20130;-75
2023/09/03 08:42:16;;;;;;;7.18;6.13;;;;;;;21.27;55.19;101658.59;10263920;28;20041;-76
2023/09/03 08:47:19;;;;;;;12.05;7.40;;;;;;;20.33;57.75;101649.25;10270986;28;20046;-75
2023/09/03 08:52:24;;;;;;;9.57;5.85;;;;;;;20.52;57.25;101651.81;10271132;28;20045;-75
2023/09/03 08:57:28;;;;;;;7.43;6.70;;;;;;;20.41;56.63;101656.66;10270686;28;20519;-75
2023/09/03 09:02:33;;;;;;;10.00;5.90;;;;;;;20.25;56.77;101668.25;10266739;28;20034;-75
2023/09/03 09:07:37;;;;;;;8.27;4.80;;;;;;;21.09;56.42;101661.38;10266839;28;20043;-76
2023/09/03 09:12:46;;;;;;;6.80;3.33;;;;;;;21.53;53.20;101664.84;10270640;28;20050;-75
2023/09/03 09:17:49;;;;;;;7.47;4.47;;;;;;;21.46;53.82;101666.50;10253143;28;20548;-75
2023/09/03 09:22:53;;;;;;;8.00;4.20;;;;;;;21.26;52.84;101671.41;10269742;28;20042;-76
2023/09/03 09:27:57;;;;;;;9.10;3.70;;;;;;;21.21;52.87;101671.03;10264615;28;20053;-75
2023/09/03 09:33:04;;;;;;;4.35;2.60;;;;;;;21.60;53.11;101668.59;10260472;28;20036;-75
2023/09/03 09:38:09;;;;;;;3.28;2.47;;;;;;;22.27;49.92;101654.03;10271846;28;20067;-75
2023/09/03 09:43:12;;;;;;;4.47;2.88;;;;;;;21.99;49.31;101669.94;10271978;28;20051;-75
2023/09/03 09:48:15;;;;;;;4.05;3.40;;;;;;;22.25;49.69;101662.44;10265917;28;20058;-75
2023/09/03 09:53:24;;;;;;;3.13;2.78;;;;;;;21.91;50.59;101656.22;10263449;28;20039;-75
2023/09/03 09:58:35;;;;;;;2.45;2.25;;;;;;;21.91;49.29;101670.75;10270520;28;20055;-75
2023/09/03 10:03:43;;;;;;;4.13;1.80;;;;;;;22.36;47.99;101657.66;10268732;28;20525;-75
2023/09/03 10:08:49;;;;;;;4.80;2.10;;;;;;;22.81;47.16;101659.84;10271948;28;20071;-75
2023/09/03 10:13:55;;;;;;;2.75;2.10;;;;;;;23.29;46.06;101649.81;10267062;28;20141;-75
2023/09/03 10:19:03;;;;;;;2.63;2.20;;;;;;;23.60;45.71;101641.56;10266130;28;20039;-76
2023/09/03 10:24:09;;;;;;;3.17;1.83;;;;;;;23.33;45.42;101658.50;10269146;28;20047;-75
2023/09/03 10:29:14;;;;;;;2.35;1.50;;;;;;;24.00;44.19;101655.25;10269655;28;20414;-75
2023/09/03 10:34:17;;;;;;;2.72;1.50;;;;;;;24.14;45.09;101659.09;10268690;28;20047;-75
2023/09/03 10:39:25;;;;;;;3.38;1.90;;;;;;;22.94;45.80;101646.47;10268302;28;20128;-75
2023/09/03 10:44:32;;;;;;;1.55;1.20;;;;;;;22.64;43.21;101659.03;10269216;28;20088;-75
2023/09/03 10:49:41;;;;;;;2.50;1.33;;;;;;;23.59;43.17;101659.09;10266990;28;20049;-75
2023/09/03 10:54:45;;;;;;;2.05;1.38;;;;;;;24.27;41.71;101670.28;10269055;28;20043;-76
2023/09/03 11:00:08;;;;;;;2.42;1.30;;;;;;;24.47;42.25;101666.06;10275829;28;20043;-76
2023/09/03 11:05:16;;;;;;;1.80;1.52;;;;;;;24.59;42.32;101676.59;10275368;28;20042;-75
2023/09/03 11:10:42;;;;;;;1.88;1.27;;;;;;;26.33;40.52;101669.56;10275936;28;20059;-75
2023/09/03 11:15:51;;;;;;;1.40;1.00;;;;;;;26.93;38.54;101669.03;10274749;28;20518;-75
2023/09/03 11:20:56;;;;;;;2.55;1.30;;;;;;;27.14;38.91;101673.59;10276332;28;20046;-75
2023/09/03 11:26:02;;;;;;;1.27;1.17;;;;;;;27.03;39.18;101679.69;10278962;28;20042;-76
2023/09/03 11:31:06;;;;;;;2.53;1.15;;;;;;;27.12;38.57;101675.72;10273648;28;20403;-75
2023/09/03 11:36:09;;;;;;;1.70;0.98;;;;;;;27.37;36.91;101673.31;10272084;28;20050;-76
2023/09/03 11:41:17;;;;;;;1.63;1.05;;;;;;;26.23;37.09;101676.28;10278123;28;20039;-75
2023/09/03 11:46:20;;;;;;;1.25;1.05;;;;;;;26.07;39.11;101665.50;10275529;28;20043;-75
2023/09/03 11:51:25;;;;;;;1.17;1.08;;;;;;;27.42;38.08;101664.44;10275048;28;20065;-76
2023/09/03 11:56:32;;;;;;;2.22;1.10;;;;;;;27.51;37.13;101674.25;10274307;28;20434;-75
2023/09/03 12:01:36;;;;;;;1.23;0.90;;;;;;;27.89;37.06;101670.09;10267439;28;20035;-75
2023/09/03 12:06:39;;;;;;;1.10;0.80;;;;;;;28.04;36.92;101673.59;10274948;28;20066;-75
2023/09/03 12:11:43;;;;;;;1.92;1.17;;;;;;;26.33;39.74;101675.97;10276173;28;20041;-75
2023/09/03 12:16:47;;;;;;;2.65;1.23;;;;;;;26.38;39.57;101676.19;10257364;28;20053;-75
2023/09/03 12:21:52;;;;;;;2.13;0.95;;;;;;;26.80;39.07;101679.94;10271974;28;20073;-74
2023/09/03 12:27:03;;;;;;;1.48;1.02;;;;;;;27.40;38.99;101674.84;10274201;28;20046;-75
2023/09/03 12:32:07;;;;;;;1.10;0.83;;;;;;;27.42;37.50;101672.72;10274048;28;20035;-75
2023/09/03 12:37:10;;;;;;;1.58;0.95;;;;;;;28.57;34.85;101665.34;10273186;28;20042;-75
2023/09/03 12:42:15;;;;;;;1.20;0.88;;;;;;;29.14;32.15;101662.94;10271472;28;20069;-75
2023/09/03 12:47:17;;;;;;;2.17;0.90;;;;;;;29.78;31.40;101661.19;10269395;28;20046;-75
2023/09/03 12:52:20;;;;;;;2.50;1.20;;;;;;;28.46;32.43;101660.44;10272352;28;20454;-75
2023/09/03 12:57:26;;;;;;;1.13;0.93;;;;;;;29.52;32.28;101651.94;10273751;28;20043;-75
2023/09/03 13:02:29;;;;;;;0.90;0.90;;;;;;;30.53;30.35;101647.47;10266603;28;20042;-75
2023/09/03 13:07:32;;;;;;;0.95;0.70;;;;;;;30.85;32.14;101642.66;10267892;28;20558;-76
2023/09/03 13:12:36;;;;;;;1.42;1.17;;;;;;;28.15;34.09;101641.75;10267767;28;20043;-76
2023/09/03 13:17:39;;;;;;;2.53;1.30;;;;;;;28.07;36.15;101647.47;10264903;28;20046;-75
2023/09/03 13:22:42;;;;;;;1.98;1.17;;;;;;;28.30;34.81;101630.47;10266338;28;20050;-75
2023/09/03 13:27:46;;;;;;;1.77;1.40;;;;;;;27.85;36.41;101622.75;10267255;28;20410;-75
2023/09/03 13:32:49;;;;;;;1.52;1.00;;;;;;;27.86;35.89;101631.88;10263796;28;20043;-75
2023/09/03 13:37:52;;;;;;;1.48;1.05;;;;;;;27.59;35.92;101621.63;10264882;28;20051;-75
2023/09/03 13:42:56;;;;;;;1.10;0.93;;;;;;;27.11;36.49;101620.78;10265818;28;20517;-76
2023/09/03 13:47:59;;;;;;;1.58;0.95;;;;;;;27.52;35.67;101612.47;10263496;28;20039;-75
2023/09/03 13:53:01;;;;;;;2.97;1.45;;;;;;;28.00;37.30;101630.88;10263724;28;20034;-75
2023/09/03 13:58:07;;;;;;;1.77;1.17;;;;;;;27.06;36.14;101632.41;10263940;28;20051;-75
2023/09/03 14:03:09;;;;;;;2.53;1.35;;;;;;;26.44;38.90;101635.97;10262484;28;20066;-75
2023/09/03 14:08:13;;;;;;;1.35;1.13;;;;;;;26.85;36.75;101636.13;10265303;28;20390;-76
2023/09/03 14:13:17;;;;;;;3.88;1.20;;;;;;;27.56;36.57;101629.47;10264851;28;20454;-76
2023/09/03 14:18:27;;;;;;;1.17;1.08;;;;;;;28.30;36.91;101622.19;10265354;28;20046;-76
2023/09/03 14:23:30;;;;;;;1.48;1.10;;;;;;;26.64;39.01;101617.72;10265871;28;20086;-75
2023/09/03 14:28:34;;;;;;;2.25;1.15;;;;;;;26.50;37.86;101613.16;10265860;28;20055;-75
2023/09/03 14:33:37;;;;;;;3.78;1.30;;;;;;;26.78;38.84;101604.88;10273212;28;20039;-75
2023/09/03 14:38:40;;;;;;;3.08;1.10;;;;;;;26.08;40.54;101607.50;10275404;28;20050;-75
2023/09/03 14:43:44;;;;;;;1.33;1.00;;;;;;;26.15;39.71;101610.28;10275256;28;20039;-75
2023/09/03 14:48:48;;;;;;;1.30;1.20;;;;;;;25.60;41.52;101606.34;10274794;28;20058;-75
2023/09/03 14:53:51;;;;;;;1.42;1.20;;;;;;;25.91;40.76;101599.69;10275831;28;20046;-75
2023/09/03 14:58:59;;;;;;;1.83;1.20;;;;;;;26.32;40.12;101594.38;10279515;28;20047;-75
2023/09/03 15:04:02;;;;;;;1.95;0.98;;;;;;;26.16;37.85;101583.59;10277142;28;20046;-76
2023/09/03 15:09:05;;;;;;;1.83;1.00;;;;;;;25.98;38.80;101584.09;10275438;28;20053;-76
2023/09/03 15:14:09;;;;;;;1.10;1.00;;;;;;;25.37;39.80;101595.50;10276082;28;20042;-75
2023/09/03 15:19:12;;;;;;;1.33;1.15;;;;;;;25.07;42.23;101591.94;10277688;28;20035;-74
2023/09/03 15:24:15;;;;;;;1.85;1.20;;;;;;;25.24;41.35;101587.94;10276511;28;20043;-75
2023/09/03 15:29:20;;;;;;;2.15;0.90;;;;;;;25.66;41.52;101608.31;10275503;28;20047;-75
2023/09/03 15:34:23;;;;;;;1.52;1.10;;;;;;;26.10;40.60;101617.44;10278926;28;20038;-75
2023/09/03 15:39:26;;;;;;;1.20;1.10;;;;;;;25.68;39.49;101627.41;10276738;28;20046;-74
2023/09/03 15:44:30;;;;;;;1.80;1.10;;;;;;;25.44;40.49;101614.81;10276254;28;20509;-74
2023/09/03 15:49:33;;;;;;;1.33;1.17;;;;;;;24.80;41.02;101598.94;10277952;28;20046;-75
2023/09/03 15:54:38;;;;;;;1.10;1.00;;;;;;;24.35;42.19;101603.47;10275819;28;20047;-75
2023/09/03 15:59:42;;;;;;;2.10;1.33;;;;;;;23.85;43.87;101605.78;10277345;28;20043;-75
2023/09/03 16:04:45;;;;;;;1.05;1.05;;;;;;;23.52;44.99;101603.22;10273290;28;20069;-74
2023/09/03 16:09:47;;;;;;;2.28;1.20;;;;;;;23.26;45.05;101613.66;10277316;28;20050;-75
2023/09/03 16:14:52;;;;;;;2.60;1.42;;;;;;;23.13;45.38;101619.72;10277373;28;20039;-75
2023/09/03 16:19:55;;;;;;;1.10;1.10;;;;;;;22.89;45.70;101617.88;10278198;28;20062;-76
2023/09/03 16:24:58;;;;;;;1.38;1.10;;;;;;;23.03;45.90;101614.41;10276726;28;20039;-75
2023/09/03 16:30:03;;;;;;;1.25;1.00;;;;;;;23.14;46.60;101615.94;10277428;28;20043;-75
2023/09/03 16:35:07;;;;;;;2.55;1.38;;;;;;;22.94;47.11;101612.72;10274813;28;20411;-75
2023/09/03 16:40:10;;;;;;;1.88;1.40;;;;;;;22.81;48.01;101604.22;10276293;28;20062;-75
2023/09/03 16:45:15;;;;;;;2.28;1.42;;;;;;;22.86;47.68;101610.88;10277180;28;20042;-75
2023/09/03 16:50:17;;;;;;;1.60;1.15;;;;;;;22.84;48.49;101610.19;10275710;28;20046;-75
2023/09/03 16:55:20;;;;;;;1.85;1.30;;;;;;;22.70;48.22;101611.75;10276218;28;20039;-75
2023/09/03 17:00:25;;;;;;;1.70;1.35;;;;;;;22.56;48.55;101596.06;10275378;28;20043;-75
2023/09/03 17:05:27;;;;;;;1.30;1.10;;;;;;;22.30;49.84;101582.56;10273747;28;20039;-75
2023/09/03 17:10:32;;;;;;;1.85;1.40;;;;;;;21.87;49.81;101593.66;10274029;28;20486;-75
2023/09/03 17:15:39;;;;;;;3.22;1.30;;;;;;;21.73;52.64;101607.13;10277150;28;20038;-75
2023/09/03 17:20:43;;;;;;;1.90;1.70;;;;;;;21.57;52.92;101625.19;10275128;28;20038;-75
2023/09/03 17:25:46;;;;;;;2.83;1.80;;;;;;;21.61;53.29;101632.06;10274134;28;20035;-75
2023/09/03 17:30:52;;;;;;;2.83;1.70;;;;;;;21.48;52.01;101639.88;10271489;28;20051;-75
2023/09/03 17:35:54;;;;;;;2.50;1.90;;;;;;;21.20;52.98;101645.59;10273988;28;20067;-75
2023/09/03 17:40:58;;;;;;;1.88;1.40;;;;;;;21.01;53.42;101630.25;10278051;28;20043;-75
2023/09/03 17:46:02;;;;;;;2.72;1.73;;;;;;;20.75;54.56;101640.34;10274954;28;20043;-75
2023/09/03 17:51:05;;;;;;;1.65;1.40;;;;;;;20.42;56.19;101642.84;10273397;28;20042;-75
2023/09/03 17:56:08;;;;;;;1.65;1.45;;;;;;;20.08;56.96;101650.91;10273028;28;20465;-76
2023/09/03 18:01:12;;;;;;;3.10;1.63;;;;;;;19.63;57.84;101649.06;10275315;28;20053;-76
2023/09/03 18:06:15;;;;;;;3.47;2.05;;;;;;;19.49;57.51;101652.28;10273268;28;20085;-76
2023/09/03 18:11:18;;;;;;;2.72;2.08;;;;;;;19.44;57.70;101658.16;10278800;28;20045;-76
2023/09/03 18:16:22;;;;;;;3.95;1.95;;;;;;;19.27;58.64;101656.25;10276569;28;20051;-76
2023/09/03 18:21:25;;;;;;;1.92;1.73;;;;;;;19.21;59.05;101661.28;10280333;28;20050;-76
2023/09/03 18:26:28;;;;;;;3.83;2.20;;;;;;;19.01;59.60;101663.25;10281947;28;20039;-75
2023/09/03 18:31:33;;;;;;;4.45;2.20;;;;;;;18.87;59.18;101660.13;10280134;28;20058;-75
2023/09/03 18:36:36;;;;;;;3.65;2.05;;;;;;;18.65;59.86;101669.47;10281125;28;20047;-75
2023/09/03 18:41:38;;;;;;;3.00;2.28;;;;;;;18.48;60.38;101669.19;10277749;28;20121;-75
2023/09/03 18:46:43;;;;;;;2.72;2.40;;;;;;;18.51;60.76;101674.38;10277323;28;20039;-75
2023/09/03 18:51:46;;;;;;;2.63;2.38;;;;;;;18.54;60.69;101679.53;10280745;28;20047;-74
2023/09/03 18:56:49;;;;;;;2.42;2.22;;;;;;;18.63;60.80;101679.66;10276474;28;20852;-76
2023/09/03 19:01:53;;;;;;;3.53;2.25;;;;;;;18.60;60.65;101677.22;10278592;28;20058;-75
2023/09/03 19:06:56;;;;;;;1.90;1.80;;;;;;;18.55;60.97;101680.38;10271834;28;20451;-75
2023/09/03 19:11:59;;;;;;;2.30;2.10;;;;;;;18.52;61.23;101678.81;10280208;28;20825;-75
2023/09/03 19:17:03;;;;;;;5.18;1.83;;;;;;;18.44;61.36;101672.38;10277610;28;20046;-74
2023/09/03 19:22:06;;;;;;;2.85;2.65;;;;;;;18.52;61.93;101667.91;10275759;28;20051;-75
2023/09/03 19:27:09;;;;;;;2.92;2.25;;;;;;;18.52;62.19;101661.63;10278239;28;20057;-76
2023/09/03 19:32:16;;;;;;;2.90;2.70;;;;;;;18.36;62.72;101676.66;10275360;28;20035;-77
2023/09/03 19:37:19;;;;;;;4.72;2.83;;;;;;;18.39;62.95;101669.22;10276268;28;20054;-75
2023/09/03 19:42:22;;;;;;;3.03;2.70;;;;;;;18.30;63.18;101649.19;10279417;28;20039;-76
2023/09/03 19:47:26;;;;;;;3.45;2.83;;;;;;;18.30;63.00;101660.94;10278333;28;20043;-75
2023/09/03 19:52:29;;;;;;;4.60;2.70;;;;;;;18.12;63.38;101658.06;10273471;28;20090;-74
2023/09/03 19:57:32;;;;;;;3.08;2.80;;;;;;;17.96;63.52;101662.31;10274858;28;20050;-75
2023/09/03 20:02:36;;;;;;;4.53;2.28;;;;;;;17.79;62.90;101645.69;10276307;28;20051;-75
2023/09/03 20:07:39;;;;;;;5.88;2.67;;;;;;;17.50;63.76;101644.78;10281412;28;20081;-76
2023/09/03 20:12:42;;;;;;;2.97;2.67;;;;;;;17.52;64.36;101648.22;10278883;28;20043;-76
2023/09/03 20:17:46;;;;;;;3.65;2.80;;;;;;;17.46;64.29;101636.91;10274752;28;20051;-75
2023/09/03 20:22:49;;;;;;;5.55;2.80;;;;;;;17.39;64.49;101640.34;10270571;28;20042;-75
2023/09/03 20:27:53;;;;;;;3.03;2.83;;;;;;;17.37;64.76;101645.06;10276411;28;20054;-75
2023/09/03 20:32:57;;;;;;;5.65;3.20;;;;;;;17.22;65.09;101659.03;10278615;28;20046;-74
2023/09/03 20:38:02;;;;;;;2.63;2.42;;;;;;;17.19;65.45;101650.28;10274438;28;20043;-75
2023/09/03 20:43:05;;;;;;;2.67;2.45;;;;;;;17.07;65.46;101656.78;10269717;28;20470;-75
2023/09/03 20:48:09;;;;;;;6.35;3.13;;;;;;;16.90;65.97;101647.41;10271838;28;20051;-75
2023/09/03 20:53:12;;;;;;;2.72;2.47;;;;;;;16.61;67.39;101642.66;10274894;28;20035;-75
2023/09/03 20:58:15;;;;;;;5.68;3.10;;;;;;;16.62;67.67;101644.41;10277464;28;20051;-76
2023/09/03 21:03:19;;;;;;;2.80;2.60;;;;;;;16.63;67.57;101651.53;10270013;28;20043;-75
2023/09/03 21:08:24;;;;;;;5.18;2.45;;;;;;;16.59;67.54;101655.50;10265858;28;20042;-75
2023/09/03 21:13:29;;;;;;;4.40;3.05;;;;;;;16.52;67.72;101660.59;10276421;28;20109;-75
2023/09/03 21:18:33;;;;;;;4.47;2.85;;;;;;;16.50;68.15;101661.72;10271968;28;20676;-76
2023/09/03 21:23:36;;;;;;;3.33;2.83;;;;;;;16.43;68.44;101655.97;10269740;28;20597;-77
2023/09/03 21:28:39;;;;;;;6.63;3.40;;;;;;;16.45;68.61;101661.25;10268545;28;20879;-75
2023/09/03 21:33:43;;;;;;;4.10;3.00;;;;;;;16.35;68.66;101653.94;10266020;28;20414;-75
2023/09/03 21:38:46;;;;;;;3.20;2.78;;;;;;;16.34;68.68;101654.03;10269798;28;20114;-75
2023/09/03 21:43:51;;;;;;;4.38;2.85;;;;;;;16.20;69.02;101666.03;10269874;28;20449;-76
2023/09/03 21:48:55;;;;;;;3.55;3.20;;;;;;;16.16;68.88;101667.28;10270833;28;20841;-75
2023/09/03 21:53:58;;;;;;;4.25;3.33;;;;;;;16.10;69.20;101668.69;10265783;28;20616;-75
2023/09/03 21:59:01;;;;;;;3.40;3.10;;;;;;;16.02;68.88;101665.75;10269813;28;20058;-76
2023/09/03 22:04:06;;;;;;;3.50;3.20;;;;;;;16.00;69.62;101666.88;10265387;28;20043;-75
2023/09/03 22:09:09;;;;;;;6.22;4.43;;;;;;;15.99;70.40;101670.53;10266175;28;20530;-76
2023/09/03 22:14:12;;;;;;;4.25;3.58;;;;;;;15.87;70.65;101684.13;10269735;28;20091;-76
2023/09/03 22:19:16;;;;;;;4.93;3.47;;;;;;;15.95;70.54;101688.06;10261402;28;20510;-76
2023/09/03 22:24:28;;;;;;;5.32;4.00;;;;;;;15.93;70.38;101685.47;10266540;28;20388;-76
2023/09/03 22:29:31;;;;;;;4.85;3.97;;;;;;;15.86;70.92;101695.13;10267387;28;20453;-76
2023/09/03 22:34:35;;;;;;;5.28;4.70;;;;;;;15.67;71.98;101693.91;10261206;28;20418;-76
2023/09/03 22:39:38;;;;;;;4.95;4.28;;;;;;;15.54;72.89;101695.91;10260038;28;20402;-75
2023/09/03 22:44:41;;;;;;;9.32;4.97;;;;;;;15.53;73.09;101693.34;10262361;28;20486;-76
2023/09/03 22:49:45;;;;;;;8.27;4.95;;;;;;;15.39;73.48;101687.19;10266138;28;20047;-76
2023/09/03 22:54:48;;;;;;;5.20;4.80;;;;;;;15.22;73.77;101687.63;10265471;28;20545;-76
2023/09/03 22:59:51;;;;;;;8.65;4.97;;;;;;;15.08;74.52;101677.06;10266268;28;20070;-76
2023/09/03 23:04:55;;;;;;;4.97;4.47;;;;;;;15.07;74.56;101672.66;10268413;28;20231;-76
2023/09/03 23:10:01;;;;;;;6.20;5.13;;;;;;;15.03;74.60;101670.19;10266758;28;20039;-76